sensor_id;sensor_type;location;lat;lon;timestamp;P1;durP1;ratioP1;P2;durP2;ratioP2
12603;SDS011;6367;52.508;13.284;2022-07-06T00:01:33;1.07;;;0.97;;
12603;SDS011;6367;52.508;13.284;2022-07-06T00:03:59;1.23;;;1.10;;
12603;SDS011;6367;52.508;13.284;2022-07-06T00:06:26;3.13;;;1.17;;
12603;SDS011;6367;52.508;13.284;2022-07-06T00:08:52;1.27;;;1.10;;
12603;SDS011;6367;52.508;13.284;2022-07-06T00:11:17;1.30;;;1.13;;
12603;SDS011;6367;52.508;13.284;2022-07-06T00:13:43;2.20;;;1.40;;
12603;SDS011;6367;52.508;13.284;2022-07-06T00:16:09;1.27;;;1.00;;
12603;SDS011;6367;52.508;13.284;2022-07-06T00:18:35;4.10;;;1.40;;
12603;SDS011;6367;52.508;13.284;2022-07-06T00:21:00;3.20;;;1.00;;
12603;SDS011;6367;52.508;13.284;2022-07-06T00:23:26;1.30;;;1.20;;
12603;SDS011;6367;52.508;13.284;2022-07-06T00:25:51;3.43;;;1.23;;
12603;SDS011;6367;52.508;13.284;2022-07-06T00:28:17;1.33;;;1.10;;
12603;SDS011;6367;52.508;13.284;2022-07-06T00:30:43;3.47;;;1.30;;
12603;SDS011;6367;52.508;13.284;2022-07-06T00:33:08;1.50;;;1.10;;
12603;SDS011;6367;52.508;13.284;2022-07-06T00:35:34;2.33;;;1.40;;
12603;SDS011;6367;52.508;13.284;2022-07-06T00:37:59;1.07;;;0.90;;
12603;SDS011;6367;52.508;13.284;2022-07-06T00:40:25;2.40;;;1.17;;
12603;SDS011;6367;52.508;13.284;2022-07-06T00:42:51;2.07;;;1.20;;
12603;SDS011;6367;52.508;13.284;2022-07-06T00:45:17;1.27;;;1.17;;
12603;SDS011;6367;52.508;13.284;2022-07-06T00:47:44;1.77;;;1.47;;
12603;SDS011;6367;52.508;13.284;2022-07-06T00:50:11;1.57;;;1.30;;
12603;SDS011;6367;52.508;13.284;2022-07-06T00:52:50;3.10;;;1.30;;
12603;SDS011;6367;52.508;13.284;2022-07-06T00:55:21;2.60;;;1.20;;
12603;SDS011;6367;52.508;13.284;2022-07-06T00:57:48;1.50;;;1.40;;
12603;SDS011;6367;52.508;13.284;2022-07-06T01:00:15;1.60;;;1.27;;
12603;SDS011;6367;52.508;13.284;2022-07-06T01:02:43;3.73;;;1.30;;
12603;SDS011;6367;52.508;13.284;2022-07-06T01:05:09;1.60;;;1.17;;
12603;SDS011;6367;52.508;13.284;2022-07-06T01:07:37;1.53;;;0.97;;
12603;SDS011;6367;52.508;13.284;2022-07-06T01:10:05;2.07;;;1.00;;
12603;SDS011;6367;52.508;13.284;2022-07-06T01:12:32;2.90;;;1.40;;
12603;SDS011;6367;52.508;13.284;2022-07-06T01:15:00;4.30;;;1.10;;
12603;SDS011;6367;52.508;13.284;2022-07-06T01:17:26;1.40;;;1.27;;
12603;SDS011;6367;52.508;13.284;2022-07-06T01:19:52;2.77;;;1.30;;
12603;SDS011;6367;52.508;13.284;2022-07-06T01:22:18;3.00;;;1.50;;
12603;SDS011;6367;52.508;13.284;2022-07-06T01:24:44;3.00;;;1.30;;
12603;SDS011;6367;52.508;13.284;2022-07-06T01:27:09;3.53;;;1.60;;
12603;SDS011;6367;52.508;13.284;2022-07-06T01:29:35;2.17;;;1.30;;
12603;SDS011;6367;52.508;13.284;2022-07-06T01:32:01;1.83;;;1.20;;
12603;SDS011;6367;52.508;13.284;2022-07-06T01:34:27;1.50;;;1.40;;
12603;SDS011;6367;52.508;13.284;2022-07-06T01:36:53;4.63;;;1.37;;
12603;SDS011;6367;52.508;13.284;2022-07-06T01:39:19;1.30;;;1.20;;
12603;SDS011;6367;52.508;13.284;2022-07-06T01:41:45;2.97;;;1.80;;
12603;SDS011;6367;52.508;13.284;2022-07-06T01:44:11;2.70;;;1.50;;
12603;SDS011;6367;52.508;13.284;2022-07-06T01:46:36;2.40;;;1.50;;
12603;SDS011;6367;52.508;13.284;2022-07-06T01:49:03;3.83;;;1.30;;
12603;SDS011;6367;52.508;13.284;2022-07-06T01:51:30;2.90;;;1.30;;
12603;SDS011;6367;52.508;13.284;2022-07-06T01:53:55;1.40;;;1.30;;
12603;SDS011;6367;52.508;13.284;2022-07-06T01:56:21;2.47;;;1.20;;
12603;SDS011;6367;52.508;13.284;2022-07-06T01:58:47;1.40;;;1.10;;
12603;SDS011;6367;52.508;13.284;2022-07-06T02:01:14;1.30;;;1.20;;
12603;SDS011;6367;52.508;13.284;2022-07-06T02:03:41;2.23;;;1.40;;
12603;SDS011;6367;52.508;13.284;2022-07-06T02:06:07;1.83;;;1.17;;
12603;SDS011;6367;52.508;13.284;2022-07-06T02:08:33;1.40;;;1.13;;
12603;SDS011;6367;52.508;13.284;2022-07-06T02:11:00;4.77;;;1.80;;
12603;SDS011;6367;52.508;13.284;2022-07-06T02:13:26;2.30;;;1.50;;
12603;SDS011;6367;52.508;13.284;2022-07-06T02:15:52;2.60;;;1.50;;
12603;SDS011;6367;52.508;13.284;2022-07-06T02:18:18;2.40;;;1.83;;
12603;SDS011;6367;52.508;13.284;2022-07-06T02:20:43;3.30;;;1.63;;
12603;SDS011;6367;52.508;13.284;2022-07-06T02:23:09;1.60;;;1.50;;
12603;SDS011;6367;52.508;13.284;2022-07-06T02:25:34;4.00;;;1.30;;
12603;SDS011;6367;52.508;13.284;2022-07-06T02:28:00;3.13;;;1.73;;
12603;SDS011;6367;52.508;13.284;2022-07-06T02:30:26;3.87;;;2.07;;
12603;SDS011;6367;52.508;13.284;2022-07-06T02:32:51;3.60;;;1.60;;
12603;SDS011;6367;52.508;13.284;2022-07-06T02:35:17;2.70;;;1.60;;
12603;SDS011;6367;52.508;13.284;2022-07-06T02:37:42;2.80;;;1.60;;
12603;SDS011;6367;52.508;13.284;2022-07-06T02:40:08;3.50;;;1.43;;
12603;SDS011;6367;52.508;13.284;2022-07-06T02:42:34;2.07;;;1.60;;
12603;SDS011;6367;52.508;13.284;2022-07-06T02:45:00;2.87;;;1.73;;
12603;SDS011;6367;52.508;13.284;2022-07-06T02:47:26;2.07;;;1.47;;
12603;SDS011;6367;52.508;13.284;2022-07-06T02:49:52;4.20;;;2.17;;
12603;SDS011;6367;52.508;13.284;2022-07-06T02:52:19;2.90;;;1.73;;
12603;SDS011;6367;52.508;13.284;2022-07-06T02:54:44;5.93;;;2.20;;
12603;SDS011;6367;52.508;13.284;2022-07-06T02:57:10;3.00;;;1.73;;
12603;SDS011;6367;52.508;13.284;2022-07-06T02:59:36;2.50;;;1.60;;
12603;SDS011;6367;52.508;13.284;2022-07-06T03:02:03;2.53;;;1.53;;
12603;SDS011;6367;52.508;13.284;2022-07-06T03:04:29;2.33;;;2.00;;
12603;SDS011;6367;52.508;13.284;2022-07-06T03:06:54;2.50;;;2.07;;
12603;SDS011;6367;52.508;13.284;2022-07-06T03:09:20;3.43;;;1.90;;
12603;SDS011;6367;52.508;13.284;2022-07-06T03:11:46;2.03;;;1.50;;
12603;SDS011;6367;52.508;13.284;2022-07-06T03:14:11;4.53;;;1.80;;
12603;SDS011;6367;52.508;13.284;2022-07-06T03:16:37;3.33;;;2.13;;
12603;SDS011;6367;52.508;13.284;2022-07-06T03:19:03;4.60;;;1.77;;
12603;SDS011;6367;52.508;13.284;2022-07-06T03:21:28;3.57;;;1.70;;
12603;SDS011;6367;52.508;13.284;2022-07-06T03:23:54;2.90;;;1.90;;
12603;SDS011;6367;52.508;13.284;2022-07-06T03:26:19;3.83;;;1.80;;
12603;SDS011;6367;52.508;13.284;2022-07-06T03:28:45;5.80;;;2.80;;
12603;SDS011;6367;52.508;13.284;2022-07-06T03:31:11;4.20;;;1.60;;
12603;SDS011;6367;52.508;13.284;2022-07-06T03:33:36;2.80;;;1.87;;
12603;SDS011;6367;52.508;13.284;2022-07-06T03:36:02;4.77;;;1.97;;
12603;SDS011;6367;52.508;13.284;2022-07-06T03:38:27;7.83;;;1.83;;
12603;SDS011;6367;52.508;13.284;2022-07-06T03:40:53;3.53;;;1.67;;
12603;SDS011;6367;52.508;13.284;2022-07-06T03:43:19;3.33;;;1.93;;
12603;SDS011;6367;52.508;13.284;2022-07-06T03:45:44;3.37;;;1.87;;
12603;SDS011;6367;52.508;13.284;2022-07-06T03:48:10;3.90;;;1.70;;
12603;SDS011;6367;52.508;13.284;2022-07-06T03:50:35;2.67;;;2.03;;
12603;SDS011;6367;52.508;13.284;2022-07-06T03:53:01;3.90;;;1.60;;
12603;SDS011;6367;52.508;13.284;2022-07-06T03:55:27;4.53;;;2.17;;
12603;SDS011;6367;52.508;13.284;2022-07-06T03:57:52;11.03;;;2.40;;
12603;SDS011;6367;52.508;13.284;2022-07-06T04:00:18;3.47;;;2.30;;
12603;SDS011;6367;52.508;13.284;2022-07-06T04:02:43;2.67;;;1.70;;
12603;SDS011;6367;52.508;13.284;2022-07-06T04:05:09;2.40;;;1.80;;
12603;SDS011;6367;52.508;13.284;2022-07-06T04:07:35;2.47;;;1.67;;
12603;SDS011;6367;52.508;13.284;2022-07-06T04:10:00;2.90;;;1.50;;
12603;SDS011;6367;52.508;13.284;2022-07-06T04:12:26;1.93;;;1.63;;
12603;SDS011;6367;52.508;13.284;2022-07-06T04:14:51;3.77;;;1.90;;
12603;SDS011;6367;52.508;13.284;2022-07-06T04:17:17;4.13;;;1.70;;
12603;SDS011;6367;52.508;13.284;2022-07-06T04:20:02;2.00;;;1.77;;
12603;SDS011;6367;52.508;13.284;2022-07-06T04:22:29;3.63;;;1.93;;
12603;SDS011;6367;52.508;13.284;2022-07-06T04:24:54;5.60;;;2.10;;
12603;SDS011;6367;52.508;13.284;2022-07-06T04:27:20;4.90;;;2.30;;
12603;SDS011;6367;52.508;13.284;2022-07-06T04:29:45;4.50;;;2.07;;
12603;SDS011;6367;52.508;13.284;2022-07-06T04:32:11;3.93;;;1.70;;
12603;SDS011;6367;52.508;13.284;2022-07-06T04:34:36;3.80;;;1.60;;
12603;SDS011;6367;52.508;13.284;2022-07-06T04:37:02;2.83;;;2.20;;
12603;SDS011;6367;52.508;13.284;2022-07-06T04:39:28;3.20;;;2.53;;
12603;SDS011;6367;52.508;13.284;2022-07-06T04:41:56;1.40;;;1.30;;
12603;SDS011;6367;52.508;13.284;2022-07-06T04:44:22;2.23;;;1.80;;
12603;SDS011;6367;52.508;13.284;2022-07-06T04:46:48;2.33;;;1.80;;
12603;SDS011;6367;52.508;13.284;2022-07-06T04:49:13;6.17;;;2.10;;
12603;SDS011;6367;52.508;13.284;2022-07-06T04:51:39;5.63;;;2.00;;
12603;SDS011;6367;52.508;13.284;2022-07-06T04:54:04;2.50;;;1.70;;
12603;SDS011;6367;52.508;13.284;2022-07-06T04:56:30;3.13;;;2.00;;
12603;SDS011;6367;52.508;13.284;2022-07-06T04:58:56;5.53;;;2.10;;
12603;SDS011;6367;52.508;13.284;2022-07-06T05:01:21;2.27;;;1.60;;
12603;SDS011;6367;52.508;13.284;2022-07-06T05:03:47;5.13;;;1.73;;
12603;SDS011;6367;52.508;13.284;2022-07-06T05:06:12;5.00;;;1.50;;
12603;SDS011;6367;52.508;13.284;2022-07-06T05:08:38;3.67;;;1.77;;
12603;SDS011;6367;52.508;13.284;2022-07-06T05:11:03;3.27;;;1.90;;
12603;SDS011;6367;52.508;13.284;2022-07-06T05:13:29;3.23;;;1.50;;
12603;SDS011;6367;52.508;13.284;2022-07-06T05:15:55;2.27;;;1.80;;
12603;SDS011;6367;52.508;13.284;2022-07-06T05:18:20;3.70;;;1.80;;
12603;SDS011;6367;52.508;13.284;2022-07-06T05:20:46;2.67;;;1.50;;
12603;SDS011;6367;52.508;13.284;2022-07-06T05:23:12;4.37;;;1.93;;
12603;SDS011;6367;52.508;13.284;2022-07-06T05:25:38;2.70;;;1.30;;
12603;SDS011;6367;52.508;13.284;2022-07-06T05:28:05;3.63;;;1.60;;
12603;SDS011;6367;52.508;13.284;2022-07-06T05:30:30;3.77;;;1.53;;
12603;SDS011;6367;52.508;13.284;2022-07-06T05:32:56;4.07;;;1.77;;
12603;SDS011;6367;52.508;13.284;2022-07-06T05:35:21;3.90;;;1.33;;
12603;SDS011;6367;52.508;13.284;2022-07-06T05:37:47;3.73;;;1.57;;
12603;SDS011;6367;52.508;13.284;2022-07-06T05:40:13;3.70;;;1.80;;
12603;SDS011;6367;52.508;13.284;2022-07-06T05:42:39;4.67;;;1.90;;
12603;SDS011;6367;52.508;13.284;2022-07-06T05:45:05;3.00;;;1.60;;
12603;SDS011;6367;52.508;13.284;2022-07-06T05:47:31;2.40;;;1.70;;
12603;SDS011;6367;52.508;13.284;2022-07-06T05:50:15;4.23;;;1.63;;
12603;SDS011;6367;52.508;13.284;2022-07-06T05:52:43;3.20;;;1.33;;
12603;SDS011;6367;52.508;13.284;2022-07-06T05:55:12;2.93;;;1.37;;
12603;SDS011;6367;52.508;13.284;2022-07-06T05:57:38;2.30;;;1.50;;
12603;SDS011;6367;52.508;13.284;2022-07-06T06:00:05;3.00;;;1.77;;
12603;SDS011;6367;52.508;13.284;2022-07-06T06:02:38;2.23;;;1.33;;
12603;SDS011;6367;52.508;13.284;2022-07-06T06:05:05;5.80;;;1.60;;
12603;SDS011;6367;52.508;13.284;2022-07-06T06:07:35;2.37;;;1.63;;
12603;SDS011;6367;52.508;13.284;2022-07-06T06:10:05;3.13;;;2.03;;
12603;SDS011;6367;52.508;13.284;2022-07-06T06:12:33;1.77;;;1.60;;
12603;SDS011;6367;52.508;13.284;2022-07-06T06:14:59;5.00;;;1.83;;
12603;SDS011;6367;52.508;13.284;2022-07-06T06:17:25;5.50;;;1.70;;
12603;SDS011;6367;52.508;13.284;2022-07-06T06:19:51;2.37;;;1.20;;
12603;SDS011;6367;52.508;13.284;2022-07-06T06:22:16;2.73;;;1.20;;
12603;SDS011;6367;52.508;13.284;2022-07-06T06:24:42;1.73;;;1.53;;
12603;SDS011;6367;52.508;13.284;2022-07-06T06:27:07;4.83;;;1.90;;
12603;SDS011;6367;52.508;13.284;2022-07-06T06:29:33;6.47;;;1.70;;
12603;SDS011;6367;52.508;13.284;2022-07-06T06:31:59;4.37;;;1.80;;
12603;SDS011;6367;52.508;13.284;2022-07-06T06:34:24;5.00;;;1.83;;
12603;SDS011;6367;52.508;13.284;2022-07-06T06:36:50;2.87;;;1.53;;
12603;SDS011;6367;52.508;13.284;2022-07-06T06:39:15;5.63;;;1.67;;
12603;SDS011;6367;52.508;13.284;2022-07-06T06:41:41;3.23;;;1.50;;
12603;SDS011;6367;52.508;13.284;2022-07-06T06:44:07;4.87;;;1.80;;
12603;SDS011;6367;52.508;13.284;2022-07-06T06:46:33;2.10;;;1.87;;
12603;SDS011;6367;52.508;13.284;2022-07-06T06:48:59;3.60;;;1.97;;
12603;SDS011;6367;52.508;13.284;2022-07-06T06:51:24;4.03;;;1.90;;
12603;SDS011;6367;52.508;13.284;2022-07-06T06:53:50;3.00;;;1.67;;
12603;SDS011;6367;52.508;13.284;2022-07-06T06:56:16;2.40;;;1.43;;
12603;SDS011;6367;52.508;13.284;2022-07-06T06:58:42;3.50;;;1.90;;
12603;SDS011;6367;52.508;13.284;2022-07-06T07:01:07;4.53;;;1.83;;
12603;SDS011;6367;52.508;13.284;2022-07-06T07:03:33;3.53;;;2.00;;
12603;SDS011;6367;52.508;13.284;2022-07-06T07:05:59;5.17;;;1.70;;
12603;SDS011;6367;52.508;13.284;2022-07-06T07:08:25;5.83;;;1.80;;
12603;SDS011;6367;52.508;13.284;2022-07-06T07:10:51;2.30;;;1.43;;
12603;SDS011;6367;52.508;13.284;2022-07-06T07:13:16;5.67;;;1.90;;
12603;SDS011;6367;52.508;13.284;2022-07-06T07:15:42;4.03;;;1.83;;
12603;SDS011;6367;52.508;13.284;2022-07-06T07:18:08;3.80;;;1.73;;
12603;SDS011;6367;52.508;13.284;2022-07-06T07:20:34;2.83;;;1.30;;
12603;SDS011;6367;52.508;13.284;2022-07-06T07:22:59;4.13;;;2.53;;
12603;SDS011;6367;52.508;13.284;2022-07-06T07:25:26;1.93;;;1.37;;
12603;SDS011;6367;52.508;13.284;2022-07-06T07:27:52;2.77;;;1.60;;
12603;SDS011;6367;52.508;13.284;2022-07-06T07:30:18;1.73;;;1.40;;
12603;SDS011;6367;52.508;13.284;2022-07-06T07:32:44;2.43;;;1.30;;
12603;SDS011;6367;52.508;13.284;2022-07-06T07:35:09;5.90;;;2.03;;
12603;SDS011;6367;52.508;13.284;2022-07-06T07:37:35;1.80;;;1.40;;
12603;SDS011;6367;52.508;13.284;2022-07-06T07:40:01;3.00;;;1.40;;
12603;SDS011;6367;52.508;13.284;2022-07-06T07:42:27;3.83;;;1.33;;
12603;SDS011;6367;52.508;13.284;2022-07-06T07:44:53;2.30;;;1.20;;
12603;SDS011;6367;52.508;13.284;2022-07-06T07:47:18;1.87;;;1.30;;
12603;SDS011;6367;52.508;13.284;2022-07-06T07:49:44;1.83;;;1.10;;
12603;SDS011;6367;52.508;13.284;2022-07-06T07:52:10;1.67;;;1.20;;
12603;SDS011;6367;52.508;13.284;2022-07-06T07:54:35;2.67;;;1.30;;
12603;SDS011;6367;52.508;13.284;2022-07-06T07:57:01;1.50;;;1.20;;
12603;SDS011;6367;52.508;13.284;2022-07-06T07:59:28;1.90;;;1.20;;
12603;SDS011;6367;52.508;13.284;2022-07-06T08:01:54;2.77;;;1.13;;
12603;SDS011;6367;52.508;13.284;2022-07-06T08:04:20;1.77;;;1.40;;
12603;SDS011;6367;52.508;13.284;2022-07-06T08:06:46;2.90;;;1.40;;
12603;SDS011;6367;52.508;13.284;2022-07-06T08:09:11;1.53;;;1.20;;
12603;SDS011;6367;52.508;13.284;2022-07-06T08:11:37;3.00;;;1.37;;
12603;SDS011;6367;52.508;13.284;2022-07-06T08:14:03;4.03;;;1.40;;
12603;SDS011;6367;52.508;13.284;2022-07-06T08:16:30;3.93;;;2.00;;
12603;SDS011;6367;52.508;13.284;2022-07-06T08:18:56;5.30;;;1.57;;
12603;SDS011;6367;52.508;13.284;2022-07-06T08:21:22;2.87;;;1.70;;
12603;SDS011;6367;52.508;13.284;2022-07-06T08:23:48;3.07;;;1.40;;
12603;SDS011;6367;52.508;13.284;2022-07-06T08:26:14;1.83;;;1.00;;
12603;SDS011;6367;52.508;13.284;2022-07-06T08:28:40;3.23;;;1.20;;
12603;SDS011;6367;52.508;13.284;2022-07-06T08:31:05;3.50;;;1.40;;
12603;SDS011;6367;52.508;13.284;2022-07-06T08:33:31;2.70;;;1.20;;
12603;SDS011;6367;52.508;13.284;2022-07-06T08:35:57;1.60;;;1.30;;
12603;SDS011;6367;52.508;13.284;2022-07-06T08:38:22;2.90;;;1.00;;
12603;SDS011;6367;52.508;13.284;2022-07-06T08:40:48;2.20;;;1.23;;
12603;SDS011;6367;52.508;13.284;2022-07-06T08:43:16;3.13;;;1.20;;
12603;SDS011;6367;52.508;13.284;2022-07-06T08:45:42;1.53;;;1.17;;
12603;SDS011;6367;52.508;13.284;2022-07-06T08:48:09;2.93;;;1.43;;
12603;SDS011;6367;52.508;13.284;2022-07-06T08:50:36;1.10;;;0.90;;
12603;SDS011;6367;52.508;13.284;2022-07-06T08:53:03;1.50;;;1.20;;
12603;SDS011;6367;52.508;13.284;2022-07-06T08:55:29;3.07;;;1.53;;
12603;SDS011;6367;52.508;13.284;2022-07-06T08:57:55;2.70;;;1.43;;
12603;SDS011;6367;52.508;13.284;2022-07-06T09:00:23;1.03;;;0.93;;
12603;SDS011;6367;52.508;13.284;2022-07-06T09:02:50;2.30;;;0.93;;
12603;SDS011;6367;52.508;13.284;2022-07-06T09:05:18;3.90;;;1.40;;
12603;SDS011;6367;52.508;13.284;2022-07-06T09:07:49;1.80;;;0.90;;
12603;SDS011;6367;52.508;13.284;2022-07-06T09:10:20;1.17;;;0.90;;
12603;SDS011;6367;52.508;13.284;2022-07-06T09:12:47;1.90;;;1.00;;
12603;SDS011;6367;52.508;13.284;2022-07-06T09:15:13;2.20;;;1.00;;
12603;SDS011;6367;52.508;13.284;2022-07-06T09:17:40;1.93;;;0.90;;
12603;SDS011;6367;52.508;13.284;2022-07-06T09:20:08;3.00;;;1.70;;
12603;SDS011;6367;52.508;13.284;2022-07-06T09:22:35;2.77;;;1.47;;
12603;SDS011;6367;52.508;13.284;2022-07-06T09:25:02;2.73;;;0.90;;
12603;SDS011;6367;52.508;13.284;2022-07-06T09:27:40;2.03;;;0.93;;
12603;SDS011;6367;52.508;13.284;2022-07-06T09:30:08;2.67;;;1.00;;
12603;SDS011;6367;52.508;13.284;2022-07-06T09:32:39;2.00;;;0.93;;
12603;SDS011;6367;52.508;13.284;2022-07-06T09:35:06;1.27;;;0.90;;
12603;SDS011;6367;52.508;13.284;2022-07-06T09:37:33;1.10;;;0.80;;
12603;SDS011;6367;52.508;13.284;2022-07-06T09:39:58;1.80;;;1.70;;
12603;SDS011;6367;52.508;13.284;2022-07-06T09:42:24;1.53;;;0.80;;
12603;SDS011;6367;52.508;13.284;2022-07-06T09:44:51;2.17;;;1.40;;
12603;SDS011;6367;52.508;13.284;2022-07-06T09:47:17;1.90;;;1.10;;
12603;SDS011;6367;52.508;13.284;2022-07-06T09:49:45;1.50;;;1.40;;
12603;SDS011;6367;52.508;13.284;2022-07-06T09:52:12;2.13;;;0.90;;
12603;SDS011;6367;52.508;13.284;2022-07-06T09:54:39;1.00;;;0.80;;
12603;SDS011;6367;52.508;13.284;2022-07-06T09:57:06;5.03;;;1.20;;
12603;SDS011;6367;52.508;13.284;2022-07-06T09:59:33;1.37;;;0.97;;
12603;SDS011;6367;52.508;13.284;2022-07-06T10:02:03;2.57;;;1.20;;
12603;SDS011;6367;52.508;13.284;2022-07-06T10:04:30;2.40;;;0.90;;
12603;SDS011;6367;52.508;13.284;2022-07-06T10:06:57;1.53;;;0.80;;
12603;SDS011;6367;52.508;13.284;2022-07-06T10:09:24;2.20;;;1.17;;
12603;SDS011;6367;52.508;13.284;2022-07-06T10:11:52;1.13;;;0.80;;
12603;SDS011;6367;52.508;13.284;2022-07-06T10:14:26;1.77;;;0.90;;
12603;SDS011;6367;52.508;13.284;2022-07-06T10:16:54;1.90;;;0.93;;
12603;SDS011;6367;52.508;13.284;2022-07-06T10:19:22;1.50;;;1.00;;
12603;SDS011;6367;52.508;13.284;2022-07-06T10:21:48;2.40;;;1.33;;
12603;SDS011;6367;52.508;13.284;2022-07-06T10:24:16;3.90;;;1.30;;
12603;SDS011;6367;52.508;13.284;2022-07-06T10:26:44;2.30;;;1.20;;
12603;SDS011;6367;52.508;13.284;2022-07-06T10:29:11;3.10;;;1.07;;
12603;SDS011;6367;52.508;13.284;2022-07-06T10:31:40;2.13;;;1.00;;
12603;SDS011;6367;52.508;13.284;2022-07-06T10:34:10;4.50;;;1.20;;
12603;SDS011;6367;52.508;13.284;2022-07-06T10:36:39;1.73;;;1.00;;
12603;SDS011;6367;52.508;13.284;2022-07-06T10:39:06;2.07;;;0.93;;
12603;SDS011;6367;52.508;13.284;2022-07-06T10:41:51;1.30;;;1.20;;
12603;SDS011;6367;52.508;13.284;2022-07-06T10:44:18;1.90;;;0.80;;
12603;SDS011;6367;52.508;13.284;2022-07-06T10:46:57;1.10;;;1.00;;
12603;SDS011;6367;52.508;13.284;2022-07-06T10:49:25;1.00;;;0.90;;
12603;SDS011;6367;52.508;13.284;2022-07-06T10:51:52;2.83;;;1.17;;
12603;SDS011;6367;52.508;13.284;2022-07-06T10:54:21;2.10;;;1.20;;
12603;SDS011;6367;52.508;13.284;2022-07-06T10:56:51;1.23;;;0.80;;
12603;SDS011;6367;52.508;13.284;2022-07-06T10:59:19;1.27;;;0.87;;
12603;SDS011;6367;52.508;13.284;2022-07-06T11:04:47;2.10;;;1.00;;
12603;SDS011;6367;52.508;13.284;2022-07-06T11:07:14;1.67;;;0.90;;
12603;SDS011;6367;52.508;13.284;2022-07-06T11:09:41;2.83;;;1.00;;
12603;SDS011;6367;52.508;13.284;2022-07-06T11:12:21;3.63;;;1.07;;
12603;SDS011;6367;52.508;13.284;2022-07-06T11:14:47;1.00;;;0.80;;
12603;SDS011;6367;52.508;13.284;2022-07-06T11:17:14;2.20;;;0.80;;
12603;SDS011;6367;52.508;13.284;2022-07-06T11:19:50;1.80;;;0.90;;
12603;SDS011;6367;52.508;13.284;2022-07-06T11:22:20;1.50;;;0.83;;
12603;SDS011;6367;52.508;13.284;2022-07-06T11:24:46;1.70;;;1.00;;
12603;SDS011;6367;52.508;13.284;2022-07-06T11:27:12;1.70;;;1.10;;
12603;SDS011;6367;52.508;13.284;2022-07-06T11:29:38;1.90;;;1.10;;
12603;SDS011;6367;52.508;13.284;2022-07-06T11:32:04;1.73;;;0.97;;
12603;SDS011;6367;52.508;13.284;2022-07-06T11:34:34;1.93;;;0.90;;
12603;SDS011;6367;52.508;13.284;2022-07-06T11:37:05;3.33;;;1.10;;
12603;SDS011;6367;52.508;13.284;2022-07-06T11:39:32;2.00;;;0.90;;
12603;SDS011;6367;52.508;13.284;2022-07-06T11:42:00;2.77;;;0.90;;
12603;SDS011;6367;52.508;13.284;2022-07-06T11:44:26;0.70;;;0.70;;
12603;SDS011;6367;52.508;13.284;2022-07-06T11:46:53;4.60;;;1.10;;
12603;SDS011;6367;52.508;13.284;2022-07-06T11:49:21;2.10;;;1.03;;
12603;SDS011;6367;52.508;13.284;2022-07-06T11:51:47;2.10;;;0.90;;
12603;SDS011;6367;52.508;13.284;2022-07-06T11:56:38;1.83;;;1.03;;
12603;SDS011;6367;52.508;13.284;2022-07-06T12:02:03;0.97;;;0.80;;
12603;SDS011;6367;52.508;13.284;2022-07-06T12:04:31;1.93;;;0.90;;
12603;SDS011;6367;52.508;13.284;2022-07-06T12:07:01;1.00;;;0.70;;
12603;SDS011;6367;52.508;13.284;2022-07-06T12:09:32;3.27;;;1.27;;
12603;SDS011;6367;52.508;13.284;2022-07-06T12:12:02;1.73;;;0.90;;
12603;SDS011;6367;52.508;13.284;2022-07-06T12:14:29;1.03;;;0.77;;
12603;SDS011;6367;52.508;13.284;2022-07-06T12:16:55;3.97;;;1.10;;
12603;SDS011;6367;52.508;13.284;2022-07-06T12:19:27;1.80;;;1.00;;
12603;SDS011;6367;52.508;13.284;2022-07-06T12:21:52;2.40;;;1.10;;
12603;SDS011;6367;52.508;13.284;2022-07-06T12:24:19;3.17;;;1.00;;
12603;SDS011;6367;52.508;13.284;2022-07-06T12:26:46;2.20;;;1.10;;
12603;SDS011;6367;52.508;13.284;2022-07-06T12:29:12;1.20;;;1.03;;
12603;SDS011;6367;52.508;13.284;2022-07-06T12:31:39;1.30;;;0.90;;
12603;SDS011;6367;52.508;13.284;2022-07-06T12:34:05;1.83;;;0.80;;
12603;SDS011;6367;52.508;13.284;2022-07-06T12:36:43;2.30;;;1.00;;
12603;SDS011;6367;52.508;13.284;2022-07-06T12:39:26;1.80;;;0.73;;
12603;SDS011;6367;52.508;13.284;2022-07-06T12:41:53;1.90;;;1.17;;
12603;SDS011;6367;52.508;13.284;2022-07-06T12:44:22;4.43;;;1.10;;
12603;SDS011;6367;52.508;13.284;2022-07-06T12:46:49;1.07;;;0.97;;
12603;SDS011;6367;52.508;13.284;2022-07-06T12:49:26;3.30;;;1.67;;
12603;SDS011;6367;52.508;13.284;2022-07-06T12:51:52;3.27;;;1.23;;
12603;SDS011;6367;52.508;13.284;2022-07-06T12:57:00;1.97;;;0.83;;
12603;SDS011;6367;52.508;13.284;2022-07-06T12:59:28;2.70;;;1.10;;
12603;SDS011;6367;52.508;13.284;2022-07-06T13:01:55;1.50;;;1.30;;
12603;SDS011;6367;52.508;13.284;2022-07-06T13:04:23;1.37;;;1.00;;
12603;SDS011;6367;52.508;13.284;2022-07-06T13:06:49;1.13;;;1.03;;
12603;SDS011;6367;52.508;13.284;2022-07-06T13:09:14;1.10;;;0.70;;
12603;SDS011;6367;52.508;13.284;2022-07-06T13:11:41;0.80;;;0.80;;
12603;SDS011;6367;52.508;13.284;2022-07-06T13:14:07;2.10;;;1.13;;
12603;SDS011;6367;52.508;13.284;2022-07-06T13:16:34;1.20;;;1.10;;
12603;SDS011;6367;52.508;13.284;2022-07-06T13:19:01;1.90;;;1.10;;
12603;SDS011;6367;52.508;13.284;2022-07-06T13:21:26;4.30;;;1.17;;
12603;SDS011;6367;52.508;13.284;2022-07-06T13:23:52;1.50;;;1.07;;
12603;SDS011;6367;52.508;13.284;2022-07-06T13:26:18;2.53;;;1.03;;
12603;SDS011;6367;52.508;13.284;2022-07-06T13:28:44;2.10;;;0.90;;
12603;SDS011;6367;52.508;13.284;2022-07-06T13:31:09;1.47;;;1.07;;
12603;SDS011;6367;52.508;13.284;2022-07-06T13:33:36;1.00;;;0.90;;
12603;SDS011;6367;52.508;13.284;2022-07-06T13:36:02;2.50;;;1.20;;
12603;SDS011;6367;52.508;13.284;2022-07-06T13:38:28;1.67;;;1.10;;
12603;SDS011;6367;52.508;13.284;2022-07-06T13:40:54;1.80;;;1.10;;
12603;SDS011;6367;52.508;13.284;2022-07-06T13:43:19;4.50;;;1.00;;
12603;SDS011;6367;52.508;13.284;2022-07-06T13:45:45;1.77;;;1.20;;
12603;SDS011;6367;52.508;13.284;2022-07-06T13:48:12;1.87;;;0.90;;
12603;SDS011;6367;52.508;13.284;2022-07-06T13:50:38;3.90;;;0.90;;
12603;SDS011;6367;52.508;13.284;2022-07-06T13:53:04;6.67;;;1.10;;
12603;SDS011;6367;52.508;13.284;2022-07-06T13:55:30;1.03;;;0.80;;
12603;SDS011;6367;52.508;13.284;2022-07-06T13:57:56;1.60;;;1.00;;
12603;SDS011;6367;52.508;13.284;2022-07-06T14:00:22;1.60;;;0.90;;
12603;SDS011;6367;52.508;13.284;2022-07-06T14:02:48;0.90;;;0.80;;
12603;SDS011;6367;52.508;13.284;2022-07-06T14:05:14;3.67;;;1.03;;
12603;SDS011;6367;52.508;13.284;2022-07-06T14:07:40;0.80;;;0.80;;
12603;SDS011;6367;52.508;13.284;2022-07-06T14:10:05;1.60;;;0.80;;
12603;SDS011;6367;52.508;13.284;2022-07-06T14:12:31;2.90;;;1.00;;
12603;SDS011;6367;52.508;13.284;2022-07-06T14:14:57;1.07;;;0.80;;
12603;SDS011;6367;52.508;13.284;2022-07-06T14:17:23;1.60;;;1.00;;
12603;SDS011;6367;52.508;13.284;2022-07-06T14:19:50;2.07;;;0.70;;
12603;SDS011;6367;52.508;13.284;2022-07-06T14:22:15;0.70;;;0.60;;
12603;SDS011;6367;52.508;13.284;2022-07-06T14:24:41;1.73;;;0.90;;
12603;SDS011;6367;52.508;13.284;2022-07-06T14:27:06;1.00;;;0.70;;
12603;SDS011;6367;52.508;13.284;2022-07-06T14:29:32;0.97;;;0.70;;
12603;SDS011;6367;52.508;13.284;2022-07-06T14:31:58;0.80;;;0.80;;
12603;SDS011;6367;52.508;13.284;2022-07-06T14:34:23;1.83;;;1.10;;
12603;SDS011;6367;52.508;13.284;2022-07-06T14:36:50;0.90;;;0.70;;
12603;SDS011;6367;52.508;13.284;2022-07-06T14:39:15;0.80;;;0.60;;
12603;SDS011;6367;52.508;13.284;2022-07-06T14:41:41;1.93;;;0.80;;
12603;SDS011;6367;52.508;13.284;2022-07-06T14:44:07;1.17;;;0.90;;
12603;SDS011;6367;52.508;13.284;2022-07-06T14:46:33;1.17;;;0.60;;
12603;SDS011;6367;52.508;13.284;2022-07-06T14:48:59;2.77;;;0.93;;
12603;SDS011;6367;52.508;13.284;2022-07-06T14:51:25;4.27;;;0.90;;
12603;SDS011;6367;52.508;13.284;2022-07-06T14:53:51;1.20;;;0.90;;
12603;SDS011;6367;52.508;13.284;2022-07-06T14:56:18;2.20;;;1.00;;